createdAt,value
2017-10-04T00:02:05.090Z,10.80
2017-10-04T00:04:32.578Z,10.80
2017-10-04T00:07:00.097Z,10.70
2017-10-04T00:09:28.345Z,10.70
2017-10-04T00:11:55.849Z,10.70
2017-10-04T00:14:23.333Z,10.70
2017-10-04T00:16:50.845Z,10.70
2017-10-04T00:19:19.097Z,10.70
2017-10-04T00:21:46.609Z,10.70
2017-10-04T00:24:14.093Z,10.80
2017-10-04T00:26:41.605Z,10.80
2017-10-04T00:29:09.088Z,10.70
2017-10-04T00:31:36.601Z,10.80
2017-10-04T00:34:04.866Z,10.80
2017-10-04T00:36:32.384Z,10.70
2017-10-04T00:38:59.874Z,10.80
2017-10-04T00:41:27.381Z,10.70
2017-10-04T00:43:54.873Z,10.70
2017-10-04T00:46:22.383Z,10.70
2017-10-04T00:48:49.873Z,10.70
2017-10-04T00:51:17.381Z,10.70
2017-10-04T00:53:45.632Z,10.70
2017-10-04T00:56:13.137Z,10.70
2017-10-04T00:58:40.630Z,10.70
2017-10-04T01:01:08.146Z,10.70
2017-10-04T01:03:36.397Z,10.70
2017-10-04T01:06:04.673Z,10.70
2017-10-04T01:08:32.158Z,10.70
2017-10-04T01:11:00.433Z,10.70
2017-10-04T01:13:28.706Z,10.70
2017-10-04T01:15:56.981Z,10.70
2017-10-04T01:18:25.241Z,10.70
2017-10-04T01:20:52.745Z,10.70
2017-10-04T01:23:20.228Z,10.70
2017-10-04T01:25:47.745Z,10.70
2017-10-04T01:28:15.238Z,10.70
2017-10-04T01:30:42.749Z,10.70
2017-10-04T01:33:11.004Z,10.60
2017-10-04T01:35:38.513Z,10.60
2017-10-04T01:38:06.008Z,10.60
2017-10-04T01:40:33.513Z,10.50
2017-10-04T01:43:01.001Z,10.50
2017-10-04T01:45:28.509Z,10.50
2017-10-04T01:47:56.761Z,10.50
2017-10-04T01:50:24.265Z,10.50
2017-10-04T01:52:51.749Z,10.40
2017-10-04T01:55:19.237Z,10.40
2017-10-04T01:57:46.746Z,10.40
2017-10-04T02:00:14.237Z,10.40
2017-10-04T02:02:41.749Z,10.40
2017-10-04T02:05:09.237Z,10.40
2017-10-04T02:07:36.745Z,10.40
2017-10-04T02:10:04.992Z,10.40
2017-10-04T02:12:33.269Z,10.40
2017-10-04T02:15:00.753Z,10.40
2017-10-04T02:17:29.029Z,10.40
2017-10-04T02:19:57.281Z,10.40
2017-10-04T02:22:24.794Z,10.40
2017-10-04T02:24:52.289Z,10.40
2017-10-04T02:27:19.806Z,10.30
2017-10-04T02:29:47.297Z,10.30
2017-10-04T02:32:14.800Z,10.20
2017-10-04T02:34:43.050Z,10.10
2017-10-04T02:37:10.563Z,10.10
2017-10-04T02:39:38.049Z,10.00
2017-10-04T02:42:05.553Z,10.00
2017-10-04T02:44:33.801Z,9.80
2017-10-04T02:47:01.281Z,9.80
2017-10-04T02:49:29.553Z,9.70
2017-10-04T02:51:57.034Z,9.80
2017-10-04T02:54:24.548Z,9.70
2017-10-04T02:56:52.037Z,9.70
2017-10-04T02:59:20.304Z,9.70
2017-10-04T03:01:47.789Z,9.70
2017-10-04T03:04:15.288Z,9.70
2017-10-04T03:06:42.773Z,9.70
2017-10-04T03:09:10.299Z,9.70
2017-10-04T03:11:37.781Z,9.70
2017-10-04T03:14:05.285Z,9.80
2017-10-04T03:16:32.769Z,9.70
2017-10-04T03:19:00.269Z,9.70
2017-10-04T03:21:27.749Z,9.70
2017-10-04T03:23:55.256Z,9.70
2017-10-04T03:26:22.752Z,9.60
2017-10-04T03:28:51.022Z,9.60
2017-10-04T03:31:19.274Z,9.50
2017-10-04T03:33:46.781Z,9.50
2017-10-04T03:36:14.288Z,9.50
2017-10-04T03:38:41.772Z,9.50
2017-10-04T03:41:10.038Z,9.40
2017-10-04T03:43:37.522Z,9.40
2017-10-04T03:46:05.790Z,9.40
2017-10-04T03:48:34.038Z,9.40
2017-10-04T03:51:01.539Z,9.30
2017-10-04T03:53:29.022Z,9.30
2017-10-04T03:55:56.526Z,9.30
2017-10-04T03:58:24.005Z,9.30
2017-10-04T04:00:52.269Z,9.30
2017-10-04T04:03:20.526Z,9.30
2017-10-04T04:05:48.030Z,9.20
2017-10-04T04:08:15.513Z,9.20
2017-10-04T04:10:43.018Z,9.20
2017-10-04T04:13:10.521Z,9.20
2017-10-04T04:15:38.021Z,9.30
2017-10-04T04:18:05.506Z,9.30
2017-10-04T04:20:33.773Z,9.20
2017-10-04T04:23:01.258Z,9.20
2017-10-04T04:25:28.761Z,9.10
2017-10-04T04:27:56.241Z,9.10
2017-10-04T04:30:24.518Z,9.10
2017-10-04T04:32:52.765Z,9.10
2017-10-04T04:35:20.245Z,9.10
2017-10-04T04:40:48.357Z,9.20
2017-10-04T04:43:16.602Z,9.10
2017-10-04T04:45:44.090Z,9.10
2017-10-04T04:48:12.358Z,9.00
2017-10-04T04:50:40.602Z,9.00
2017-10-04T04:53:08.110Z,9.00
2017-10-04T04:55:35.593Z,9.00
2017-10-04T04:58:03.098Z,9.00
2017-10-04T05:00:30.581Z,8.90
2017-10-04T05:02:58.085Z,8.90
2017-10-04T05:05:25.561Z,8.90
2017-10-04T05:07:53.065Z,8.90
2017-10-04T05:10:20.549Z,8.90
2017-10-04T05:12:48.049Z,8.90
2017-10-04T05:15:16.297Z,8.90
2017-10-04T05:17:43.805Z,8.80
2017-10-04T05:20:11.287Z,8.90
2017-10-04T05:22:38.798Z,8.90
2017-10-04T05:25:06.286Z,8.90
2017-10-04T05:27:33.786Z,8.90
2017-10-04T05:30:01.281Z,8.90
2017-10-04T05:32:29.549Z,8.90
2017-10-04T05:34:57.801Z,8.80
2017-10-04T05:37:25.286Z,8.80
2017-10-04T05:39:53.553Z,8.80
2017-10-04T05:42:21.037Z,8.80
2017-10-04T05:44:48.551Z,8.80
2017-10-04T05:47:16.038Z,8.90
2017-10-04T05:49:44.317Z,8.90
2017-10-04T05:52:12.565Z,8.90
2017-10-04T05:54:40.069Z,8.80
2017-10-04T05:57:07.548Z,8.90
2017-10-04T05:59:35.058Z,8.90
2017-10-04T06:02:02.546Z,9.00
2017-10-04T06:04:30.049Z,9.00
2017-10-04T06:06:57.541Z,9.00
2017-10-04T06:09:25.818Z,9.10
2017-10-04T06:11:54.069Z,9.10
2017-10-04T06:14:21.573Z,9.10
2017-10-04T06:16:49.057Z,9.10
2017-10-04T06:19:16.562Z,9.10
2017-10-04T06:21:44.813Z,9.20
2017-10-04T06:24:12.322Z,9.20
2017-10-04T06:26:39.805Z,9.30
2017-10-04T06:29:07.318Z,9.30
2017-10-04T06:31:35.566Z,9.40
2017-10-04T06:34:03.050Z,9.40
2017-10-04T06:36:31.352Z,9.40
2017-10-04T06:38:58.832Z,9.40
2017-10-04T06:41:26.345Z,9.50
2017-10-04T06:43:54.593Z,9.70
2017-10-04T06:46:22.098Z,9.60
2017-10-04T06:48:49.581Z,9.70
2017-10-04T06:51:17.094Z,9.80
2017-10-04T06:53:45.345Z,9.90
2017-10-04T06:56:12.845Z,9.90
2017-10-04T06:58:40.334Z,9.90
2017-10-04T07:01:07.841Z,10.00
2017-10-04T07:03:36.097Z,10.20
2017-10-04T07:06:03.613Z,10.10
2017-10-04T07:08:31.101Z,10.30
2017-10-04T07:10:58.781Z,10.40
2017-10-04T07:13:26.270Z,10.40
2017-10-04T07:15:53.776Z,10.40
2017-10-04T07:18:21.265Z,10.50
2017-10-04T07:20:48.773Z,10.60
2017-10-04T07:23:16.263Z,10.60
2017-10-04T07:25:43.749Z,10.80
2017-10-04T07:28:12.032Z,11.00
2017-10-04T07:30:39.529Z,11.00
2017-10-04T07:33:07.045Z,11.10
2017-10-04T07:35:35.302Z,11.20
2017-10-04T07:38:02.814Z,11.20
2017-10-04T07:40:30.305Z,11.30
2017-10-04T07:42:57.814Z,11.30
2017-10-04T07:45:25.302Z,11.30
2017-10-04T07:47:52.814Z,11.30
2017-10-04T07:50:21.074Z,11.50
2017-10-04T07:52:48.581Z,11.40
2017-10-04T07:55:16.069Z,11.50
2017-10-04T07:57:43.577Z,11.60
2017-10-04T08:00:11.081Z,11.70
2017-10-04T08:02:38.594Z,11.80
2017-10-04T08:05:06.094Z,11.80
2017-10-04T08:07:33.608Z,11.90
2017-10-04T08:10:01.098Z,11.90
2017-10-04T08:12:28.614Z,12.00
2017-10-04T08:14:56.869Z,12.20
2017-10-04T08:17:24.373Z,12.20
2017-10-04T08:19:51.861Z,12.40
2017-10-04T08:22:19.346Z,12.50
2017-10-04T08:24:46.854Z,12.70
2017-10-04T08:27:14.333Z,12.80
2017-10-04T08:29:41.833Z,12.90
2017-10-04T08:32:10.086Z,13.10
2017-10-04T08:34:38.361Z,13.20
2017-10-04T08:37:05.854Z,13.20
2017-10-04T08:39:33.361Z,13.30
2017-10-04T08:42:00.846Z,13.40
2017-10-04T08:44:28.359Z,13.50
2017-10-04T08:49:50.637Z,13.60
2017-10-04T08:52:18.122Z,13.60
2017-10-04T08:54:46.434Z,13.60
2017-10-04T08:57:13.921Z,13.60
2017-10-04T08:59:41.430Z,13.90
2017-10-04T09:02:09.681Z,14.70
2017-10-04T09:04:49.105Z,14.70
2017-10-04T09:07:16.594Z,14.80
2017-10-04T09:09:44.869Z,14.80
2017-10-04T09:12:13.125Z,14.70
2017-10-04T09:14:40.633Z,14.70
2017-10-04T09:17:08.118Z,14.70
2017-10-04T09:19:35.617Z,14.90
2017-10-04T09:22:03.874Z,15.20
2017-10-04T09:24:31.353Z,15.20
2017-10-04T09:26:59.631Z,15.30
2017-10-04T09:29:27.885Z,15.40
2017-10-04T09:31:55.393Z,15.30
2017-10-04T09:34:22.889Z,15.40
2017-10-04T09:36:50.406Z,15.40
2017-10-04T09:39:17.889Z,15.40
2017-10-04T09:41:45.393Z,15.60
2017-10-04T09:44:13.649Z,16.10
2017-10-04T09:46:41.154Z,16.10
2017-10-04T09:49:08.650Z,16.40
2017-10-04T09:51:36.161Z,16.70
2017-10-04T09:54:03.649Z,17.20
2017-10-04T09:56:31.161Z,18.00
2017-10-04T09:58:59.414Z,19.10
2017-10-04T10:01:26.921Z,19.10
2017-10-04T10:03:54.410Z,19.40
2017-10-04T10:06:21.922Z,19.70
2017-10-04T10:08:50.168Z,21.70
2017-10-04T10:11:17.674Z,21.70
2017-10-04T10:13:45.178Z,21.50
2017-10-04T10:16:12.718Z,21.20
2017-10-04T10:18:40.200Z,20.50
2017-10-04T10:21:07.686Z,19.90
2017-10-04T10:23:35.957Z,20.40
2017-10-04T10:26:04.205Z,20.30
2017-10-04T10:28:31.714Z,20.30
2017-10-04T10:30:59.197Z,19.20
2017-10-04T10:33:26.697Z,18.40
2017-10-04T10:35:54.188Z,17.80
2017-10-04T10:38:21.698Z,17.20
2017-10-04T10:40:49.185Z,17.10
2017-10-04T10:43:17.452Z,16.60
2017-10-04T10:45:45.702Z,16.50
2017-10-04T10:48:13.210Z,16.50
2017-10-04T10:50:40.709Z,16.40
2017-10-04T10:53:08.218Z,16.40
2017-10-04T10:55:36.461Z,16.60
2017-10-04T10:58:03.966Z,16.50
2017-10-04T11:00:31.469Z,16.50
2017-10-04T11:02:58.973Z,16.30
2017-10-04T11:05:26.454Z,16.20
2017-10-04T11:07:53.957Z,16.30
2017-10-04T11:10:21.448Z,16.50
2017-10-04T11:12:48.958Z,16.60
2017-10-04T11:15:16.441Z,16.90
2017-10-04T11:17:44.690Z,18.70
2017-10-04T11:20:12.213Z,18.70
2017-10-04T11:22:39.717Z,19.70
2017-10-04T11:25:07.222Z,19.60
2017-10-04T11:27:34.717Z,18.90
2017-10-04T11:30:02.243Z,18.20
2017-10-04T11:32:29.730Z,17.50
2017-10-04T11:34:57.234Z,17.80
2017-10-04T11:37:25.486Z,18.30
2017-10-04T11:39:52.993Z,18.30
2017-10-04T11:42:20.482Z,18.60
2017-10-04T11:44:47.985Z,19.00
2017-10-04T11:47:16.245Z,18.80
2017-10-04T11:49:43.764Z,18.80
2017-10-04T11:52:11.250Z,18.30
2017-10-04T11:54:38.758Z,18.30
2017-10-04T11:57:06.241Z,18.40
2017-10-04T11:59:33.751Z,18.30
2017-10-04T12:02:02.001Z,19.50
2017-10-04T12:04:29.507Z,19.40
2017-10-04T12:06:56.988Z,18.90
2017-10-04T12:09:24.475Z,18.90
2017-10-04T12:11:51.988Z,19.30
2017-10-04T12:14:19.469Z,19.40
2017-10-04T12:16:47.157Z,19.20
2017-10-04T12:19:14.649Z,18.40
2017-10-04T12:21:42.158Z,17.70
2017-10-04T12:24:09.677Z,17.50
2017-10-04T12:26:37.181Z,17.50
2017-10-04T12:29:04.669Z,17.30
2017-10-04T12:31:32.941Z,17.30
2017-10-04T12:34:01.189Z,17.30
2017-10-04T12:36:28.693Z,17.30
2017-10-04T12:38:56.172Z,17.50
2017-10-04T12:41:23.677Z,17.40
2017-10-04T12:43:51.162Z,17.40
2017-10-04T12:46:18.669Z,17.30
2017-10-04T12:48:46.153Z,17.30
2017-10-04T12:51:13.658Z,18.00
2017-10-04T12:53:41.159Z,18.40
2017-10-04T12:56:08.661Z,18.30
2017-10-04T12:58:36.149Z,18.50
2017-10-04T13:01:03.629Z,18.50
2017-10-04T13:03:31.910Z,18.30
2017-10-04T13:05:59.397Z,18.30
2017-10-04T13:08:27.669Z,18.50
2017-10-04T13:10:55.916Z,18.70
2017-10-04T13:13:23.421Z,18.70
2017-10-04T13:15:50.905Z,18.70
2017-10-04T13:18:18.405Z,18.50
2017-10-04T13:20:45.894Z,18.20
2017-10-04T13:23:13.402Z,18.00
2017-10-04T13:25:40.889Z,17.80
2017-10-04T13:28:09.161Z,17.60
2017-10-04T13:30:36.641Z,17.60
2017-10-04T13:33:04.152Z,17.40
2017-10-04T13:35:31.629Z,17.50
2017-10-04T13:37:59.129Z,17.40
2017-10-04T13:40:26.617Z,17.50
2017-10-04T13:42:54.890Z,17.40
2017-10-04T13:45:22.377Z,17.40
2017-10-04T13:47:49.881Z,17.70
2017-10-04T13:50:17.369Z,17.80
2017-10-04T13:52:44.876Z,17.90
2017-10-04T13:55:13.125Z,17.30
2017-10-04T13:57:40.610Z,17.30
2017-10-04T14:00:08.885Z,16.90
2017-10-04T14:02:37.131Z,16.80
2017-10-04T14:05:04.633Z,16.80
2017-10-04T14:07:32.126Z,16.70
2017-10-04T14:09:59.633Z,16.70
2017-10-04T14:12:27.884Z,16.70
2017-10-04T14:14:55.389Z,16.70
2017-10-04T14:17:22.869Z,16.70
2017-10-04T14:19:50.369Z,16.70
2017-10-04T14:22:17.862Z,16.60
2017-10-04T14:24:45.373Z,16.60
2017-10-04T14:27:12.869Z,16.40
2017-10-04T14:29:40.373Z,16.40
2017-10-04T14:32:07.858Z,16.30
2017-10-04T14:34:35.365Z,16.30
2017-10-04T14:37:02.849Z,16.20
2017-10-04T14:39:30.358Z,16.10
2017-10-04T14:41:57.840Z,16.10
2017-10-04T14:44:25.346Z,16.00
2017-10-04T14:46:52.834Z,16.00
2017-10-04T14:49:20.354Z,15.80
2017-10-04T14:51:47.846Z,15.70
2017-10-04T14:54:16.106Z,15.60
2017-10-04T14:56:44.377Z,15.60
2017-10-04T14:59:11.857Z,15.60
2017-10-04T15:01:39.373Z,15.50
2017-10-04T15:04:06.857Z,15.50
2017-10-04T15:06:35.331Z,15.50
2017-10-04T15:09:02.817Z,15.40
2017-10-04T15:11:30.326Z,15.40
2017-10-04T15:13:57.813Z,15.40
2017-10-04T15:16:26.087Z,15.20
2017-10-04T15:18:54.342Z,15.20
2017-10-04T15:21:21.853Z,15.10
2017-10-04T15:23:49.346Z,15.10
2017-10-04T15:26:16.862Z,15.10
2017-10-04T15:28:44.345Z,15.10
2017-10-04T15:31:11.855Z,15.00
2017-10-04T15:33:40.113Z,15.00
2017-10-04T15:36:07.622Z,15.00
2017-10-04T15:38:35.110Z,15.00
2017-10-04T15:41:02.622Z,14.90
2017-10-04T15:43:30.110Z,14.90
2017-10-04T15:45:57.602Z,14.90
2017-10-04T15:48:25.111Z,14.80
2017-10-04T15:50:52.593Z,14.80
2017-10-04T15:53:20.121Z,14.70
2017-10-04T15:55:47.605Z,14.70
2017-10-04T15:58:15.113Z,14.70
2017-10-04T16:00:43.365Z,14.60
2017-10-04T16:03:10.874Z,14.60
2017-10-04T16:05:38.360Z,14.50
2017-10-04T16:08:05.861Z,14.50
2017-10-04T16:10:34.118Z,14.50
2017-10-04T16:13:01.626Z,14.50
2017-10-04T16:15:29.113Z,14.50
2017-10-04T16:17:56.621Z,14.50
2017-10-04T16:20:24.877Z,14.40
2017-10-04T16:22:52.385Z,14.40
2017-10-04T16:25:19.877Z,14.40
2017-10-04T16:27:47.386Z,14.50
2017-10-04T16:30:14.873Z,14.40
2017-10-04T16:32:42.382Z,14.40
2017-10-04T16:35:10.648Z,14.30
2017-10-04T16:37:38.162Z,14.30
2017-10-04T16:40:05.650Z,14.30
2017-10-04T16:42:33.153Z,14.20
2017-10-04T16:45:00.661Z,14.20
2017-10-04T16:47:28.144Z,14.20
2017-10-04T16:49:56.418Z,14.20
2017-10-04T16:52:24.670Z,14.10
2017-10-04T16:54:52.183Z,14.10
2017-10-04T16:57:19.681Z,14.10
2017-10-04T16:59:47.190Z,14.10
2017-10-04T17:02:14.677Z,14.10
2017-10-04T17:04:42.182Z,14.00
2017-10-04T17:07:09.670Z,14.00
2017-10-04T17:09:37.180Z,14.00
2017-10-04T17:12:04.665Z,14.00
2017-10-04T17:14:32.946Z,14.00
2017-10-04T17:17:01.194Z,14.00
2017-10-04T17:19:28.713Z,13.90
2017-10-04T17:21:56.202Z,13.90
2017-10-04T17:24:23.710Z,13.90
2017-10-04T17:26:51.194Z,13.90
2017-10-04T17:29:18.705Z,13.90
2017-10-04T17:31:46.953Z,13.80
2017-10-04T17:34:14.437Z,13.80
2017-10-04T17:36:41.962Z,13.80
2017-10-04T17:39:09.450Z,13.80
2017-10-04T17:41:36.973Z,13.80
2017-10-04T17:44:04.453Z,13.70
2017-10-04T17:46:31.962Z,13.70
2017-10-04T17:48:59.465Z,13.70
2017-10-04T17:51:26.969Z,13.70
2017-10-04T17:53:54.461Z,13.60
2017-10-04T17:56:21.965Z,13.60
2017-10-04T17:58:50.221Z,13.60
2017-10-04T18:01:17.728Z,13.60
2017-10-04T18:03:45.222Z,13.60
2017-10-04T18:06:12.746Z,13.50
2017-10-04T18:08:40.236Z,13.50
2017-10-04T18:11:07.757Z,13.50
2017-10-04T18:13:35.257Z,13.50
2017-10-04T18:16:02.765Z,13.40
2017-10-04T18:18:30.253Z,13.40
2017-10-04T18:20:57.769Z,13.40
2017-10-04T18:23:26.022Z,13.40
2017-10-04T18:25:53.539Z,13.40
2017-10-04T18:28:21.027Z,13.40
2017-10-04T18:30:48.513Z,13.30
2017-10-04T18:33:16.785Z,13.30
2017-10-04T18:35:45.050Z,13.30
2017-10-04T18:38:12.561Z,13.30
2017-10-04T18:40:40.045Z,13.30
2017-10-04T18:43:07.557Z,13.30
2017-10-04T18:45:35.045Z,13.30
2017-10-04T18:48:02.554Z,13.30
2017-10-04T18:50:30.805Z,13.30
2017-10-04T18:52:58.325Z,13.30
2017-10-04T18:55:25.815Z,13.30
2017-10-04T18:57:53.320Z,13.30
2017-10-04T19:00:21.569Z,13.30
2017-10-04T19:02:49.082Z,13.30
2017-10-04T19:05:16.570Z,13.30
2017-10-04T19:07:44.082Z,13.30
2017-10-04T19:10:11.566Z,13.30
2017-10-04T19:12:39.073Z,13.30
2017-10-04T19:15:07.325Z,13.30
2017-10-04T19:17:34.839Z,13.20
2017-10-04T19:20:02.329Z,13.20
2017-10-04T19:22:29.810Z,13.20
2017-10-04T19:24:57.321Z,13.20
2017-10-04T19:27:24.810Z,13.10
2017-10-04T19:29:52.318Z,13.10
2017-10-04T19:32:19.805Z,13.10
2017-10-04T19:34:47.315Z,13.10
2017-10-04T19:37:15.579Z,13.10
2017-10-04T19:39:43.092Z,13.00
2017-10-04T19:42:10.578Z,13.10
2017-10-04T19:44:38.086Z,13.00
2017-10-04T19:47:05.573Z,13.00
2017-10-04T19:49:33.081Z,13.00
2017-10-04T19:52:01.337Z,13.10
2017-10-04T19:54:28.849Z,13.10
2017-10-04T19:56:56.338Z,13.10
2017-10-04T19:59:23.845Z,13.10
2017-10-04T20:01:52.089Z,13.10
2017-10-04T20:04:19.606Z,13.10
2017-10-04T20:06:47.093Z,13.10
2017-10-04T20:09:14.606Z,13.10
2017-10-04T20:11:42.094Z,13.20
2017-10-04T20:14:09.607Z,13.20
2017-10-04T20:16:37.862Z,13.10
2017-10-04T20:19:05.350Z,13.20
2017-10-04T20:21:32.853Z,13.10
2017-10-04T20:24:00.341Z,13.20
2017-10-04T20:26:27.865Z,13.20
2017-10-04T20:28:55.353Z,13.20
2017-10-04T20:31:22.857Z,13.10
2017-10-04T20:33:50.341Z,13.20
2017-10-04T20:36:17.856Z,13.10
2017-10-04T20:38:45.345Z,13.10
2017-10-04T20:41:12.854Z,13.10
2017-10-04T20:43:41.105Z,13.10
2017-10-04T20:46:08.619Z,13.10
2017-10-04T20:48:36.109Z,13.10
2017-10-04T20:51:03.609Z,13.10
2017-10-04T20:53:31.857Z,13.10
2017-10-04T20:55:59.366Z,13.10
2017-10-04T20:58:26.853Z,13.10
2017-10-04T21:00:54.361Z,13.10
2017-10-04T21:03:22.610Z,13.10
2017-10-04T21:05:50.114Z,13.10
2017-10-04T21:08:17.606Z,13.00
2017-10-04T21:10:45.085Z,13.10
2017-10-04T21:13:12.615Z,13.10
2017-10-04T21:15:40.110Z,13.10
2017-10-04T21:18:07.621Z,13.10
2017-10-04T21:20:35.105Z,13.10
2017-10-04T21:23:02.613Z,13.10
2017-10-04T21:25:30.117Z,13.10
2017-10-04T21:27:57.621Z,13.10
2017-10-04T21:30:25.877Z,13.10
2017-10-04T21:32:53.388Z,13.10
2017-10-04T21:35:20.873Z,13.10
2017-10-04T21:37:48.389Z,13.10
2017-10-04T21:40:15.885Z,13.10
2017-10-04T21:42:44.162Z,13.10
2017-10-04T21:45:11.654Z,13.00
2017-10-04T21:47:39.926Z,13.00
2017-10-04T21:50:07.410Z,13.00
2017-10-04T21:52:34.925Z,13.00
2017-10-04T21:55:02.406Z,13.00
2017-10-04T21:57:30.677Z,13.00
2017-10-04T21:59:58.925Z,13.00
2017-10-04T22:02:26.413Z,12.90
2017-10-04T22:04:54.687Z,13.00
2017-10-04T22:07:22.213Z,12.90
2017-10-04T22:09:49.722Z,13.00
2017-10-04T22:12:17.974Z,13.00
2017-10-04T22:14:45.481Z,12.90
2017-10-04T22:17:12.969Z,13.00
2017-10-04T22:19:41.241Z,13.00
2017-10-04T22:22:08.722Z,13.00
2017-10-04T22:24:36.225Z,12.90
2017-10-04T22:27:03.713Z,12.90
2017-10-04T22:29:31.218Z,12.90
2017-10-04T22:31:59.469Z,13.00
2017-10-04T22:34:26.977Z,12.90
2017-10-04T22:36:54.457Z,12.90
2017-10-04T22:39:21.957Z,13.00
2017-10-04T22:41:50.205Z,13.00
2017-10-04T22:44:17.713Z,13.00
2017-10-04T22:46:45.194Z,13.00
2017-10-04T22:49:12.702Z,12.90
2017-10-04T22:51:40.185Z,13.00
2017-10-04T22:54:07.693Z,12.90
2017-10-04T22:56:35.174Z,12.90
2017-10-04T22:59:02.653Z,12.90
2017-10-04T23:01:30.933Z,12.90
2017-10-04T23:03:58.423Z,12.90
2017-10-04T23:06:25.937Z,12.90
2017-10-04T23:08:54.185Z,12.90
2017-10-04T23:11:21.689Z,12.90
2017-10-04T23:13:49.169Z,12.90
2017-10-04T23:16:16.678Z,12.90
2017-10-04T23:18:44.926Z,12.90
2017-10-04T23:21:12.433Z,12.80
2017-10-04T23:23:39.928Z,12.90
2017-10-04T23:26:07.429Z,12.80
2017-10-04T23:28:35.680Z,12.80
2017-10-04T23:31:03.193Z,12.80
2017-10-04T23:33:30.681Z,12.90
2017-10-04T23:35:58.193Z,12.80
2017-10-04T23:38:25.686Z,12.90
2017-10-04T23:40:53.193Z,12.90
2017-10-04T23:43:20.685Z,12.90
2017-10-04T23:45:48.185Z,12.90
2017-10-04T23:48:15.677Z,12.90
2017-10-04T23:50:43.950Z,12.90
2017-10-04T23:53:12.201Z,12.90
2017-10-04T23:55:39.681Z,12.90
2017-10-04T23:58:07.953Z,12.90
